Saint Charles, Minnesota
Current Conditions -  °F | °C
As of 2:35 PM on Friday 28 Nov 2014 (Local Time) from KONA Reporting Station
Unknown Precip Unknown Precip  
Wind Chill: -7°   Ceiling: 6500
Heat Index: -2°   Visibility: 10mi
Dew Point: -7°   Wind: 9mph
Humidity: 69%   Direction: 150°SSE
Pressure: 29.88"   Gusts: NA
Location:  43.97°N, 92.06°W
Report Text: KONA 282035Z AUTO 15008KT 10SM UP BKN065 OVC090 M02/M07 A2988 RMK AO2
Loading
Personal Weather Stations






























Interactive Weather Map New forecast layout! Learn more

10-Day Weather Forecast

Advertisements
Track Severe Weather on mobile